createdAt,value
2019-01-28T00:04:24.731Z,21.00
2019-01-28T00:14:31.074Z,20.20
2019-01-28T00:24:36.379Z,21.27
2019-01-28T00:34:41.704Z,20.87
2019-01-28T00:44:47.035Z,19.80
2019-01-28T00:54:52.366Z,19.77
2019-01-28T01:04:57.701Z,18.33
2019-01-28T01:15:03.015Z,17.80
2019-01-28T01:25:08.945Z,18.60
2019-01-28T01:35:14.490Z,18.10
2019-01-28T01:45:19.907Z,18.17
2019-01-28T01:55:25.209Z,19.20
2019-01-28T02:05:31.502Z,19.57
2019-01-28T02:15:36.802Z,17.17
2019-01-28T02:25:42.278Z,18.40
2019-01-28T02:35:47.723Z,17.03
2019-01-28T02:45:53.017Z,18.17
2019-01-28T02:55:58.231Z,17.87
2019-01-28T03:06:03.610Z,18.33
2019-01-28T03:16:09.037Z,18.20
2019-01-28T03:26:14.372Z,18.20
2019-01-28T03:36:19.665Z,17.03
2019-01-28T03:46:24.947Z,18.73
2019-01-28T03:56:30.308Z,16.83
2019-01-28T04:06:35.658Z,17.43
2019-01-28T04:16:40.963Z,17.47
2019-01-28T04:26:46.276Z,17.77
2019-01-28T04:36:51.636Z,18.27
2019-01-28T04:46:56.985Z,17.63
2019-01-28T04:57:02.294Z,16.90
2019-01-28T05:07:07.610Z,16.97
2019-01-28T05:17:13.033Z,16.23
2019-01-28T05:27:18.329Z,16.40
2019-01-28T05:37:23.651Z,14.83
2019-01-28T05:47:28.980Z,15.90
2019-01-28T05:57:34.314Z,15.17
2019-01-28T06:07:39.702Z,13.87
2019-01-28T06:17:45.128Z,14.93
2019-01-28T06:27:50.525Z,13.70
2019-01-28T06:37:55.835Z,14.93
2019-01-28T06:48:01.304Z,14.00
2019-01-28T06:58:07.719Z,15.23
2019-01-28T07:08:13.084Z,15.77
2019-01-28T07:18:18.651Z,15.53
2019-01-28T07:28:24.207Z,15.90
2019-01-28T07:38:29.645Z,15.40
2019-01-28T07:48:36.404Z,13.10
2019-01-28T07:58:41.745Z,15.80
2019-01-28T08:08:47.312Z,15.97
2019-01-28T08:18:52.619Z,14.93
2019-01-28T08:28:58.045Z,16.27
2019-01-28T08:39:03.689Z,16.77
2019-01-28T08:49:11.055Z,16.17
2019-01-28T08:59:16.462Z,15.27
2019-01-28T09:09:22.099Z,15.57
2019-01-28T09:19:27.458Z,15.80
2019-01-28T09:29:32.796Z,16.67
2019-01-28T09:39:38.129Z,16.87
2019-01-28T09:49:43.657Z,16.87
2019-01-28T09:59:48.934Z,17.33
2019-01-28T10:09:54.405Z,18.53
2019-01-28T10:19:59.682Z,17.57
2019-01-28T10:30:06.671Z,19.37
2019-01-28T10:40:14.325Z,18.80
2019-01-28T10:50:19.983Z,18.33
2019-01-28T11:00:27.737Z,18.80
2019-01-28T11:10:33.222Z,20.37
2019-01-28T11:20:38.759Z,19.60
2019-01-28T11:30:51.857Z,18.27
2019-01-28T11:40:57.599Z,21.00
2019-01-28T11:51:03.271Z,18.80
2019-01-28T12:01:35.241Z,19.20
2019-01-28T12:11:40.609Z,20.57
2019-01-28T12:21:47.102Z,19.43
2019-01-28T12:31:52.536Z,19.37
2019-01-28T12:41:57.958Z,20.13
2019-01-28T12:52:03.483Z,21.50
2019-01-28T13:02:08.774Z,24.83
2019-01-28T13:12:14.199Z,26.70
2019-01-28T13:22:19.631Z,28.83
2019-01-28T13:32:24.983Z,29.37
2019-01-28T13:42:30.381Z,29.17
2019-01-28T13:52:35.795Z,31.90
2019-01-28T14:02:41.163Z,29.50
2019-01-28T14:12:46.628Z,29.80
2019-01-28T14:22:52.093Z,30.40
2019-01-28T14:32:57.435Z,30.83
2019-01-28T14:43:03.207Z,32.73
2019-01-28T14:53:08.804Z,30.93
2019-01-28T15:03:14.241Z,33.30
2019-01-28T15:13:19.619Z,34.33
2019-01-28T15:23:25.007Z,35.17
2019-01-28T15:33:30.394Z,37.30
2019-01-28T15:43:35.721Z,38.03
2019-01-28T15:53:41.077Z,42.80
2019-01-28T16:03:46.371Z,42.57
2019-01-28T16:13:51.771Z,41.77
2019-01-28T16:23:57.141Z,45.23
2019-01-28T16:34:02.587Z,43.00
2019-01-28T16:44:08.147Z,44.07
2019-01-28T16:54:13.748Z,44.10
2019-01-28T17:04:19.224Z,51.03
2019-01-28T17:14:24.726Z,52.13
2019-01-28T17:24:30.114Z,48.17
2019-01-28T17:34:35.542Z,48.20
2019-01-28T17:44:40.893Z,51.67
2019-01-28T17:54:46.230Z,51.10
2019-01-28T18:04:51.616Z,54.53
2019-01-28T18:14:56.950Z,52.77
2019-01-28T18:25:02.297Z,56.17
2019-01-28T18:35:09.012Z,57.17
2019-01-28T18:45:18.306Z,57.40
2019-01-28T18:55:22.106Z,57.80
2019-01-28T19:05:36.293Z,60.20
2019-01-28T19:16:18.962Z,62.87
2019-01-28T19:26:24.358Z,57.33
2019-01-28T19:36:30.707Z,61.73
2019-01-28T19:46:36.268Z,62.50
2019-01-28T19:56:41.668Z,61.13
2019-01-28T20:06:47.026Z,58.63
2019-01-28T20:16:52.401Z,59.20
2019-01-28T20:26:57.749Z,62.60
2019-01-28T20:37:03.075Z,58.43
2019-01-28T20:47:08.453Z,63.40
2019-01-28T20:57:13.957Z,62.10
2019-01-28T21:07:19.233Z,58.20
2019-01-28T21:17:24.491Z,56.73
2019-01-28T21:27:30.829Z,55.83
2019-01-28T21:37:40.933Z,55.93
2019-01-28T21:47:55.544Z,56.43
2019-01-28T21:58:00.904Z,62.93
2019-01-28T22:08:06.315Z,64.83
2019-01-28T22:18:11.629Z,62.60
2019-01-28T22:28:16.981Z,62.03
2019-01-28T22:38:22.701Z,61.13
2019-01-28T22:48:28.060Z,63.53
2019-01-28T22:58:33.363Z,60.33
2019-01-28T23:08:38.729Z,59.07
2019-01-28T23:18:44.096Z,58.20
2019-01-28T23:28:49.380Z,54.53
2019-01-28T23:38:54.683Z,54.87
2019-01-28T23:48:59.980Z,52.57
2019-01-28T23:59:05.538Z,51.07
